sensor_id;sensor_type;location;lat;lon;timestamp;temperature;humidity
16076;DHT22;8142;48.242;11.644;2022-07-10T00:00:34;19.10;99.90
16076;DHT22;8142;48.242;11.644;2022-07-10T00:03:02;19.10;99.90
16076;DHT22;8142;48.242;11.644;2022-07-10T00:05:29;19.10;99.90
16076;DHT22;8142;48.242;11.644;2022-07-10T00:07:55;19.10;99.90
16076;DHT22;8142;48.242;11.644;2022-07-10T00:10:21;19.10;99.90
16076;DHT22;8142;48.242;11.644;2022-07-10T00:12:48;19.10;99.90
16076;DHT22;8142;48.242;11.644;2022-07-10T00:15:14;19.00;99.90
16076;DHT22;8142;48.242;11.644;2022-07-10T00:17:42;19.00;99.90
16076;DHT22;8142;48.242;11.644;2022-07-10T00:20:08;19.00;99.90
16076;DHT22;8142;48.242;11.644;2022-07-10T00:22:34;19.00;99.90
16076;DHT22;8142;48.242;11.644;2022-07-10T00:25:05;18.90;99.90
16076;DHT22;8142;48.242;11.644;2022-07-10T00:27:31;18.90;99.90
16076;DHT22;8142;48.242;11.644;2022-07-10T00:29:57;18.90;99.90
16076;DHT22;8142;48.242;11.644;2022-07-10T00:32:24;18.80;99.90
16076;DHT22;8142;48.242;11.644;2022-07-10T00:34:50;18.80;99.90
16076;DHT22;8142;48.242;11.644;2022-07-10T00:37:16;18.80;99.90
16076;DHT22;8142;48.242;11.644;2022-07-10T00:39:42;18.70;99.90
16076;DHT22;8142;48.242;11.644;2022-07-10T00:42:13;18.70;99.90
16076;DHT22;8142;48.242;11.644;2022-07-10T00:44:40;18.70;99.90
16076;DHT22;8142;48.242;11.644;2022-07-10T00:47:07;18.60;99.90
16076;DHT22;8142;48.242;11.644;2022-07-10T00:49:38;18.60;99.90
16076;DHT22;8142;48.242;11.644;2022-07-10T00:52:08;18.50;99.90
16076;DHT22;8142;48.242;11.644;2022-07-10T00:54:41;18.50;99.90
16076;DHT22;8142;48.242;11.644;2022-07-10T00:57:07;18.50;99.90
16076;DHT22;8142;48.242;11.644;2022-07-10T00:59:34;18.40;99.90
16076;DHT22;8142;48.242;11.644;2022-07-10T01:02:02;18.40;99.90
16076;DHT22;8142;48.242;11.644;2022-07-10T01:04:28;18.40;99.90
16076;DHT22;8142;48.242;11.644;2022-07-10T01:06:53;18.30;99.90
16076;DHT22;8142;48.242;11.644;2022-07-10T01:09:19;18.30;99.90
16076;DHT22;8142;48.242;11.644;2022-07-10T01:11:45;18.30;99.90
16076;DHT22;8142;48.242;11.644;2022-07-10T01:14:12;18.20;99.90
16076;DHT22;8142;48.242;11.644;2022-07-10T01:16:40;18.20;99.90
16076;DHT22;8142;48.242;11.644;2022-07-10T01:19:06;18.20;99.90
16076;DHT22;8142;48.242;11.644;2022-07-10T01:21:34;18.10;99.90
16076;DHT22;8142;48.242;11.644;2022-07-10T01:24:04;18.10;99.90
16076;DHT22;8142;48.242;11.644;2022-07-10T01:26:30;18.00;99.90
16076;DHT22;8142;48.242;11.644;2022-07-10T01:28:57;18.00;99.90
16076;DHT22;8142;48.242;11.644;2022-07-10T01:31:27;17.90;99.90
16076;DHT22;8142;48.242;11.644;2022-07-10T01:33:54;17.90;99.90
16076;DHT22;8142;48.242;11.644;2022-07-10T01:36:21;17.80;99.90
16076;DHT22;8142;48.242;11.644;2022-07-10T01:38:48;17.80;99.90
16076;DHT22;8142;48.242;11.644;2022-07-10T01:41:16;17.80;99.90
16076;DHT22;8142;48.242;11.644;2022-07-10T01:43:42;17.70;99.90
16076;DHT22;8142;48.242;11.644;2022-07-10T01:46:11;17.70;99.90
16076;DHT22;8142;48.242;11.644;2022-07-10T01:48:38;17.70;99.90
16076;DHT22;8142;48.242;11.644;2022-07-10T01:51:05;17.60;99.90
16076;DHT22;8142;48.242;11.644;2022-07-10T01:53:31;17.60;99.90
16076;DHT22;8142;48.242;11.644;2022-07-10T01:55:57;17.60;99.90
16076;DHT22;8142;48.242;11.644;2022-07-10T01:58:23;17.60;99.90
16076;DHT22;8142;48.242;11.644;2022-07-10T02:00:49;17.60;99.90
16076;DHT22;8142;48.242;11.644;2022-07-10T02:03:15;17.50;99.90
16076;DHT22;8142;48.242;11.644;2022-07-10T02:05:59;17.50;99.90
16076;DHT22;8142;48.242;11.644;2022-07-10T02:08:25;17.50;99.90
16076;DHT22;8142;48.242;11.644;2022-07-10T02:10:51;17.50;99.90
16076;DHT22;8142;48.242;11.644;2022-07-10T02:13:17;17.50;99.90
16076;DHT22;8142;48.242;11.644;2022-07-10T02:15:46;17.40;99.90
16076;DHT22;8142;48.242;11.644;2022-07-10T02:18:13;17.50;99.90
16076;DHT22;8142;48.242;11.644;2022-07-10T02:20:39;17.40;99.90
16076;DHT22;8142;48.242;11.644;2022-07-10T02:23:05;17.40;99.90
16076;DHT22;8142;48.242;11.644;2022-07-10T02:25:33;17.40;99.90
16076;DHT22;8142;48.242;11.644;2022-07-10T02:27:59;17.40;99.90
16076;DHT22;8142;48.242;11.644;2022-07-10T02:30:25;17.40;99.90
16076;DHT22;8142;48.242;11.644;2022-07-10T02:32:50;17.40;99.90
16076;DHT22;8142;48.242;11.644;2022-07-10T02:35:16;17.40;99.90
16076;DHT22;8142;48.242;11.644;2022-07-10T02:37:42;17.40;99.90
16076;DHT22;8142;48.242;11.644;2022-07-10T02:40:08;17.40;99.90
16076;DHT22;8142;48.242;11.644;2022-07-10T02:42:34;17.30;99.90
16076;DHT22;8142;48.242;11.644;2022-07-10T02:45:00;17.30;99.90
16076;DHT22;8142;48.242;11.644;2022-07-10T02:47:26;17.30;99.90
16076;DHT22;8142;48.242;11.644;2022-07-10T02:49:52;17.20;99.90
16076;DHT22;8142;48.242;11.644;2022-07-10T02:52:18;17.20;99.90
16076;DHT22;8142;48.242;11.644;2022-07-10T02:54:44;17.20;99.90
16076;DHT22;8142;48.242;11.644;2022-07-10T02:57:10;17.00;99.90
16076;DHT22;8142;48.242;11.644;2022-07-10T02:59:35;16.90;99.90
16076;DHT22;8142;48.242;11.644;2022-07-10T03:02:01;16.90;99.90
16076;DHT22;8142;48.242;11.644;2022-07-10T03:04:27;16.80;99.90
16076;DHT22;8142;48.242;11.644;2022-07-10T03:06:53;16.90;99.90
16076;DHT22;8142;48.242;11.644;2022-07-10T03:09:19;16.70;99.90
16076;DHT22;8142;48.242;11.644;2022-07-10T03:11:45;16.70;99.90
16076;DHT22;8142;48.242;11.644;2022-07-10T03:14:11;16.50;99.90
16076;DHT22;8142;48.242;11.644;2022-07-10T03:16:36;16.60;99.90
16076;DHT22;8142;48.242;11.644;2022-07-10T03:19:02;16.70;99.90
16076;DHT22;8142;48.242;11.644;2022-07-10T03:21:28;16.60;99.90
16076;DHT22;8142;48.242;11.644;2022-07-10T03:23:56;16.50;99.90
16076;DHT22;8142;48.242;11.644;2022-07-10T03:26:22;16.50;99.90
16076;DHT22;8142;48.242;11.644;2022-07-10T03:28:48;16.40;99.90
16076;DHT22;8142;48.242;11.644;2022-07-10T03:31:14;16.40;99.90
16076;DHT22;8142;48.242;11.644;2022-07-10T03:33:40;16.40;99.90
16076;DHT22;8142;48.242;11.644;2022-07-10T03:36:06;16.30;99.90
16076;DHT22;8142;48.242;11.644;2022-07-10T03:38:32;16.30;99.90
16076;DHT22;8142;48.242;11.644;2022-07-10T03:40:58;16.30;99.90
16076;DHT22;8142;48.242;11.644;2022-07-10T03:43:24;16.20;99.90
16076;DHT22;8142;48.242;11.644;2022-07-10T03:45:50;16.20;99.90
16076;DHT22;8142;48.242;11.644;2022-07-10T03:48:17;16.20;99.90
16076;DHT22;8142;48.242;11.644;2022-07-10T03:50:42;16.20;99.90
16076;DHT22;8142;48.242;11.644;2022-07-10T03:53:08;16.20;99.90
16076;DHT22;8142;48.242;11.644;2022-07-10T03:55:34;16.20;99.90
16076;DHT22;8142;48.242;11.644;2022-07-10T03:58:00;16.10;99.90
16076;DHT22;8142;48.242;11.644;2022-07-10T04:00:30;16.20;99.90
16076;DHT22;8142;48.242;11.644;2022-07-10T04:03:05;16.20;99.90
16076;DHT22;8142;48.242;11.644;2022-07-10T04:05:32;16.20;99.90
16076;DHT22;8142;48.242;11.644;2022-07-10T04:07:58;16.10;99.90
16076;DHT22;8142;48.242;11.644;2022-07-10T04:10:26;16.10;99.90
16076;DHT22;8142;48.242;11.644;2022-07-10T04:12:52;16.00;99.90
16076;DHT22;8142;48.242;11.644;2022-07-10T04:15:18;15.90;99.90
16076;DHT22;8142;48.242;11.644;2022-07-10T04:17:45;15.90;99.90
16076;DHT22;8142;48.242;11.644;2022-07-10T04:20:12;15.80;99.90
16076;DHT22;8142;48.242;11.644;2022-07-10T04:22:38;15.70;99.90
16076;DHT22;8142;48.242;11.644;2022-07-10T04:25:04;15.60;99.90
16076;DHT22;8142;48.242;11.644;2022-07-10T04:27:31;15.60;99.90
16076;DHT22;8142;48.242;11.644;2022-07-10T04:29:57;15.60;99.90
16076;DHT22;8142;48.242;11.644;2022-07-10T04:32:23;15.60;99.90
16076;DHT22;8142;48.242;11.644;2022-07-10T04:34:49;15.60;99.90
16076;DHT22;8142;48.242;11.644;2022-07-10T04:37:15;15.60;99.90
16076;DHT22;8142;48.242;11.644;2022-07-10T04:39:41;15.70;99.90
16076;DHT22;8142;48.242;11.644;2022-07-10T04:42:07;15.70;99.90
16076;DHT22;8142;48.242;11.644;2022-07-10T04:44:34;15.80;99.90
16076;DHT22;8142;48.242;11.644;2022-07-10T04:47:00;15.80;99.90
16076;DHT22;8142;48.242;11.644;2022-07-10T04:49:26;15.90;99.90
16076;DHT22;8142;48.242;11.644;2022-07-10T04:51:52;16.00;99.90
16076;DHT22;8142;48.242;11.644;2022-07-10T04:54:18;16.10;99.90
16076;DHT22;8142;48.242;11.644;2022-07-10T04:56:44;16.20;99.90
16076;DHT22;8142;48.242;11.644;2022-07-10T04:59:10;16.20;99.90
16076;DHT22;8142;48.242;11.644;2022-07-10T05:01:40;16.30;99.90
16076;DHT22;8142;48.242;11.644;2022-07-10T05:04:06;16.40;99.90
16076;DHT22;8142;48.242;11.644;2022-07-10T05:06:32;16.40;99.90
16076;DHT22;8142;48.242;11.644;2022-07-10T05:08:58;16.50;99.90
16076;DHT22;8142;48.242;11.644;2022-07-10T05:11:25;16.50;99.90
16076;DHT22;8142;48.242;11.644;2022-07-10T05:13:51;16.60;99.90
16076;DHT22;8142;48.242;11.644;2022-07-10T05:16:18;16.60;99.90
16076;DHT22;8142;48.242;11.644;2022-07-10T05:18:44;16.60;99.90
16076;DHT22;8142;48.242;11.644;2022-07-10T05:21:11;16.70;99.90
16076;DHT22;8142;48.242;11.644;2022-07-10T05:23:40;16.70;99.90
16076;DHT22;8142;48.242;11.644;2022-07-10T05:26:06;16.80;99.90
16076;DHT22;8142;48.242;11.644;2022-07-10T05:28:32;16.80;99.90
16076;DHT22;8142;48.242;11.644;2022-07-10T05:30:58;16.90;99.90
16076;DHT22;8142;48.242;11.644;2022-07-10T05:33:24;16.90;99.90
16076;DHT22;8142;48.242;11.644;2022-07-10T05:35:52;17.00;99.90
16076;DHT22;8142;48.242;11.644;2022-07-10T05:38:18;17.00;99.90
16076;DHT22;8142;48.242;11.644;2022-07-10T05:40:43;17.00;99.90
16076;DHT22;8142;48.242;11.644;2022-07-10T05:43:09;17.10;99.90
16076;DHT22;8142;48.242;11.644;2022-07-10T05:45:37;17.10;99.90
16076;DHT22;8142;48.242;11.644;2022-07-10T05:48:04;17.10;99.90
16076;DHT22;8142;48.242;11.644;2022-07-10T05:50:30;17.10;99.90
16076;DHT22;8142;48.242;11.644;2022-07-10T05:52:56;17.20;99.90
16076;DHT22;8142;48.242;11.644;2022-07-10T05:55:22;17.10;99.90
16076;DHT22;8142;48.242;11.644;2022-07-10T05:57:48;17.20;99.90
16076;DHT22;8142;48.242;11.644;2022-07-10T06:00:14;17.20;99.90
16076;DHT22;8142;48.242;11.644;2022-07-10T06:02:40;17.20;99.90
16076;DHT22;8142;48.242;11.644;2022-07-10T06:05:06;17.10;99.90
16076;DHT22;8142;48.242;11.644;2022-07-10T06:07:33;17.20;99.90
16076;DHT22;8142;48.242;11.644;2022-07-10T06:10:00;17.20;99.90
16076;DHT22;8142;48.242;11.644;2022-07-10T06:12:26;17.20;99.90
16076;DHT22;8142;48.242;11.644;2022-07-10T06:14:52;17.20;99.90
16076;DHT22;8142;48.242;11.644;2022-07-10T06:17:18;17.20;99.90
16076;DHT22;8142;48.242;11.644;2022-07-10T06:19:44;17.20;99.90
16076;DHT22;8142;48.242;11.644;2022-07-10T06:22:10;17.20;99.90
16076;DHT22;8142;48.242;11.644;2022-07-10T06:24:54;17.30;99.90
16076;DHT22;8142;48.242;11.644;2022-07-10T06:27:20;17.30;99.90
16076;DHT22;8142;48.242;11.644;2022-07-10T06:29:46;17.30;99.90
16076;DHT22;8142;48.242;11.644;2022-07-10T06:32:11;17.30;99.90
16076;DHT22;8142;48.242;11.644;2022-07-10T06:34:37;17.30;99.90
16076;DHT22;8142;48.242;11.644;2022-07-10T06:37:04;17.30;99.90
16076;DHT22;8142;48.242;11.644;2022-07-10T06:39:32;17.20;99.90
16076;DHT22;8142;48.242;11.644;2022-07-10T06:42:05;17.10;99.90
16076;DHT22;8142;48.242;11.644;2022-07-10T06:44:32;16.90;99.90
16076;DHT22;8142;48.242;11.644;2022-07-10T06:46:58;16.80;99.90
16076;DHT22;8142;48.242;11.644;2022-07-10T06:49:45;16.70;99.90
16076;DHT22;8142;48.242;11.644;2022-07-10T06:52:12;16.60;99.90
16076;DHT22;8142;48.242;11.644;2022-07-10T06:54:39;16.60;99.90
16076;DHT22;8142;48.242;11.644;2022-07-10T06:57:05;16.50;99.90
16076;DHT22;8142;48.242;11.644;2022-07-10T06:59:32;16.60;99.90
16076;DHT22;8142;48.242;11.644;2022-07-10T07:01:57;16.60;99.90
16076;DHT22;8142;48.242;11.644;2022-07-10T07:04:29;16.70;99.90
16076;DHT22;8142;48.242;11.644;2022-07-10T07:06:55;16.80;99.90
16076;DHT22;8142;48.242;11.644;2022-07-10T07:09:21;16.80;99.90
16076;DHT22;8142;48.242;11.644;2022-07-10T07:11:47;16.90;99.90
16076;DHT22;8142;48.242;11.644;2022-07-10T07:14:13;16.90;99.90
16076;DHT22;8142;48.242;11.644;2022-07-10T07:16:39;16.90;99.90
16076;DHT22;8142;48.242;11.644;2022-07-10T07:19:09;17.00;99.90
16076;DHT22;8142;48.242;11.644;2022-07-10T07:21:37;17.20;99.90
16076;DHT22;8142;48.242;11.644;2022-07-10T07:24:22;17.40;99.90
16076;DHT22;8142;48.242;11.644;2022-07-10T07:26:48;17.60;99.90
16076;DHT22;8142;48.242;11.644;2022-07-10T07:29:17;17.60;99.90
16076;DHT22;8142;48.242;11.644;2022-07-10T07:31:44;17.80;99.90
16076;DHT22;8142;48.242;11.644;2022-07-10T07:34:11;18.00;99.90
16076;DHT22;8142;48.242;11.644;2022-07-10T07:36:37;18.20;99.90
16076;DHT22;8142;48.242;11.644;2022-07-10T07:39:03;18.40;99.90
16076;DHT22;8142;48.242;11.644;2022-07-10T07:41:29;18.50;99.90
16076;DHT22;8142;48.242;11.644;2022-07-10T07:43:55;18.50;99.90
16076;DHT22;8142;48.242;11.644;2022-07-10T07:46:21;18.50;99.90
16076;DHT22;8142;48.242;11.644;2022-07-10T07:48:47;18.50;99.90
16076;DHT22;8142;48.242;11.644;2022-07-10T07:51:13;18.60;99.90
16076;DHT22;8142;48.242;11.644;2022-07-10T07:53:39;18.70;99.90
16076;DHT22;8142;48.242;11.644;2022-07-10T07:56:05;19.00;99.90
16076;DHT22;8142;48.242;11.644;2022-07-10T07:58:31;19.30;99.90
16076;DHT22;8142;48.242;11.644;2022-07-10T08:00:58;19.60;99.90
16076;DHT22;8142;48.242;11.644;2022-07-10T08:03:24;19.90;99.90
16076;DHT22;8142;48.242;11.644;2022-07-10T08:05:50;20.00;99.90
16076;DHT22;8142;48.242;11.644;2022-07-10T08:08:16;20.10;99.90
16076;DHT22;8142;48.242;11.644;2022-07-10T08:10:42;20.30;99.90
16076;DHT22;8142;48.242;11.644;2022-07-10T08:13:08;20.40;99.90
16076;DHT22;8142;48.242;11.644;2022-07-10T08:15:33;20.70;99.90
16076;DHT22;8142;48.242;11.644;2022-07-10T08:18:03;20.90;99.90
16076;DHT22;8142;48.242;11.644;2022-07-10T08:20:32;21.10;99.90
16076;DHT22;8142;48.242;11.644;2022-07-10T08:22:58;21.20;99.90
16076;DHT22;8142;48.242;11.644;2022-07-10T08:25:25;21.20;99.90
16076;DHT22;8142;48.242;11.644;2022-07-10T08:27:51;21.10;99.90
16076;DHT22;8142;48.242;11.644;2022-07-10T08:30:17;21.00;99.90
16076;DHT22;8142;48.242;11.644;2022-07-10T08:32:43;20.90;99.90
16076;DHT22;8142;48.242;11.644;2022-07-10T08:35:09;20.80;99.90
16076;DHT22;8142;48.242;11.644;2022-07-10T08:37:43;20.70;99.90
16076;DHT22;8142;48.242;11.644;2022-07-10T08:40:12;20.50;99.90
16076;DHT22;8142;48.242;11.644;2022-07-10T08:42:39;20.40;99.90
16076;DHT22;8142;48.242;11.644;2022-07-10T08:45:06;20.20;99.90
16076;DHT22;8142;48.242;11.644;2022-07-10T08:47:36;20.10;99.90
16076;DHT22;8142;48.242;11.644;2022-07-10T08:50:03;19.90;99.90
16076;DHT22;8142;48.242;11.644;2022-07-10T08:52:31;19.70;99.90
16076;DHT22;8142;48.242;11.644;2022-07-10T08:54:59;19.60;99.90
16076;DHT22;8142;48.242;11.644;2022-07-10T08:57:26;19.60;99.90
16076;DHT22;8142;48.242;11.644;2022-07-10T08:59:52;19.70;99.90
16076;DHT22;8142;48.242;11.644;2022-07-10T09:02:19;19.80;99.90
16076;DHT22;8142;48.242;11.644;2022-07-10T09:04:45;19.90;99.90
16076;DHT22;8142;48.242;11.644;2022-07-10T09:07:11;19.90;99.90
16076;DHT22;8142;48.242;11.644;2022-07-10T09:09:54;19.90;99.90
16076;DHT22;8142;48.242;11.644;2022-07-10T09:12:22;19.90;99.90
16076;DHT22;8142;48.242;11.644;2022-07-10T09:14:49;19.80;99.90
16076;DHT22;8142;48.242;11.644;2022-07-10T09:17:16;19.80;99.90
16076;DHT22;8142;48.242;11.644;2022-07-10T09:19:43;19.80;99.90
16076;DHT22;8142;48.242;11.644;2022-07-10T09:22:10;19.80;99.90
16076;DHT22;8142;48.242;11.644;2022-07-10T09:24:44;19.70;99.90
16076;DHT22;8142;48.242;11.644;2022-07-10T09:27:11;19.70;99.90
16076;DHT22;8142;48.242;11.644;2022-07-10T09:29:52;19.70;99.90
16076;DHT22;8142;48.242;11.644;2022-07-10T09:32:23;19.70;99.90
16076;DHT22;8142;48.242;11.644;2022-07-10T09:34:51;19.80;99.90
16076;DHT22;8142;48.242;11.644;2022-07-10T09:37:41;19.80;99.90
16076;DHT22;8142;48.242;11.644;2022-07-10T09:40:08;19.90;99.90
16076;DHT22;8142;48.242;11.644;2022-07-10T09:42:42;19.90;99.90
16076;DHT22;8142;48.242;11.644;2022-07-10T09:45:13;19.80;99.90
16076;DHT22;8142;48.242;11.644;2022-07-10T09:47:54;20.00;99.90
16076;DHT22;8142;48.242;11.644;2022-07-10T09:50:29;20.00;99.90
16076;DHT22;8142;48.242;11.644;2022-07-10T09:53:00;20.10;99.90
16076;DHT22;8142;48.242;11.644;2022-07-10T09:55:27;20.10;99.90
16076;DHT22;8142;48.242;11.644;2022-07-10T09:58:05;20.20;99.90
16076;DHT22;8142;48.242;11.644;2022-07-10T10:00:40;20.20;99.90
16076;DHT22;8142;48.242;11.644;2022-07-10T10:03:08;20.20;99.90
16076;DHT22;8142;48.242;11.644;2022-07-10T10:08:16;20.20;99.90
16076;DHT22;8142;48.242;11.644;2022-07-10T10:10:47;20.20;99.90
16076;DHT22;8142;48.242;11.644;2022-07-10T10:13:25;20.10;99.90
16076;DHT22;8142;48.242;11.644;2022-07-10T10:15:56;20.10;99.90
16076;DHT22;8142;48.242;11.644;2022-07-10T10:18:26;20.20;99.90
16076;DHT22;8142;48.242;11.644;2022-07-10T10:20:54;20.20;99.90
16076;DHT22;8142;48.242;11.644;2022-07-10T10:23:22;20.30;99.90
16076;DHT22;8142;48.242;11.644;2022-07-10T10:25:56;20.30;99.90
16076;DHT22;8142;48.242;11.644;2022-07-10T10:28:23;20.20;99.90
16076;DHT22;8142;48.242;11.644;2022-07-10T10:30:55;20.20;99.90
16076;DHT22;8142;48.242;11.644;2022-07-10T10:35:58;20.10;99.90
16076;DHT22;8142;48.242;11.644;2022-07-10T10:38:24;20.10;99.90
16076;DHT22;8142;48.242;11.644;2022-07-10T10:40:50;20.10;99.90
16076;DHT22;8142;48.242;11.644;2022-07-10T10:43:18;20.10;99.90
16076;DHT22;8142;48.242;11.644;2022-07-10T10:45:45;20.20;99.90
16076;DHT22;8142;48.242;11.644;2022-07-10T10:48:16;20.20;99.90
16076;DHT22;8142;48.242;11.644;2022-07-10T10:50:53;20.30;99.90
16076;DHT22;8142;48.242;11.644;2022-07-10T10:53:24;20.30;99.90
16076;DHT22;8142;48.242;11.644;2022-07-10T10:58:42;20.20;99.90
16076;DHT22;8142;48.242;11.644;2022-07-10T11:06:45;20.20;99.90
16076;DHT22;8142;48.242;11.644;2022-07-10T11:09:31;20.30;99.90
16076;DHT22;8142;48.242;11.644;2022-07-10T11:14:27;20.30;99.90
16076;DHT22;8142;48.242;11.644;2022-07-10T11:16:54;20.30;99.90
16076;DHT22;8142;48.242;11.644;2022-07-10T11:19:25;20.30;99.90
16076;DHT22;8142;48.242;11.644;2022-07-10T11:22:38;20.20;99.50
16076;DHT22;8142;48.242;11.644;2022-07-10T11:25:34;20.30;99.90
16076;DHT22;8142;48.242;11.644;2022-07-10T11:28:09;20.30;99.90
16076;DHT22;8142;48.242;11.644;2022-07-10T11:30:50;20.30;99.90
16076;DHT22;8142;48.242;11.644;2022-07-10T11:33:17;20.30;99.90
16076;DHT22;8142;48.242;11.644;2022-07-10T11:35:51;20.30;99.90
16076;DHT22;8142;48.242;11.644;2022-07-10T11:38:21;20.30;99.90
16076;DHT22;8142;48.242;11.644;2022-07-10T11:40:48;20.30;99.90
16076;DHT22;8142;48.242;11.644;2022-07-10T11:43:13;20.30;99.90
16076;DHT22;8142;48.242;11.644;2022-07-10T11:45:43;20.30;99.90
16076;DHT22;8142;48.242;11.644;2022-07-10T11:48:22;20.30;99.90
16076;DHT22;8142;48.242;11.644;2022-07-10T11:50:49;20.20;99.70
16076;DHT22;8142;48.242;11.644;2022-07-10T11:53:25;20.10;98.70
16076;DHT22;8142;48.242;11.644;2022-07-10T11:55:52;20.10;99.00
16076;DHT22;8142;48.242;11.644;2022-07-10T11:58:19;20.00;99.50
16076;DHT22;8142;48.242;11.644;2022-07-10T12:01:05;20.10;99.90
16076;DHT22;8142;48.242;11.644;2022-07-10T12:03:34;20.10;99.80
16076;DHT22;8142;48.242;11.644;2022-07-10T12:06:04;20.10;99.90
16076;DHT22;8142;48.242;11.644;2022-07-10T12:08:47;20.10;99.90
16076;DHT22;8142;48.242;11.644;2022-07-10T12:11:14;20.20;99.90
16076;DHT22;8142;48.242;11.644;2022-07-10T12:13:41;20.30;99.30
16076;DHT22;8142;48.242;11.644;2022-07-10T12:16:07;20.40;99.40
16076;DHT22;8142;48.242;11.644;2022-07-10T12:18:33;20.40;99.30
16076;DHT22;8142;48.242;11.644;2022-07-10T12:21:00;20.50;98.80
16076;DHT22;8142;48.242;11.644;2022-07-10T12:23:28;20.50;97.80
16076;DHT22;8142;48.242;11.644;2022-07-10T12:25:55;20.50;97.70
16076;DHT22;8142;48.242;11.644;2022-07-10T12:28:22;20.60;97.50
16076;DHT22;8142;48.242;11.644;2022-07-10T12:30:49;20.60;97.50
16076;DHT22;8142;48.242;11.644;2022-07-10T12:33:20;20.70;97.00
16076;DHT22;8142;48.242;11.644;2022-07-10T12:35:58;20.70;97.70
16076;DHT22;8142;48.242;11.644;2022-07-10T12:40:58;20.80;97.20
16076;DHT22;8142;48.242;11.644;2022-07-10T12:43:31;20.80;96.90
16076;DHT22;8142;48.242;11.644;2022-07-10T12:46:16;20.90;96.80
16076;DHT22;8142;48.242;11.644;2022-07-10T12:48:43;20.90;96.40
16076;DHT22;8142;48.242;11.644;2022-07-10T12:51:25;20.90;97.10
16076;DHT22;8142;48.242;11.644;2022-07-10T12:53:51;20.90;96.40
16076;DHT22;8142;48.242;11.644;2022-07-10T12:56:35;20.90;96.20
16076;DHT22;8142;48.242;11.644;2022-07-10T12:59:03;20.80;96.90
16076;DHT22;8142;48.242;11.644;2022-07-10T13:01:40;20.80;96.50
16076;DHT22;8142;48.242;11.644;2022-07-10T13:04:07;20.80;96.90
16076;DHT22;8142;48.242;11.644;2022-07-10T13:06:34;20.90;97.20
16076;DHT22;8142;48.242;11.644;2022-07-10T13:09:30;20.90;96.30
16076;DHT22;8142;48.242;11.644;2022-07-10T13:11:56;20.80;96.10
16076;DHT22;8142;48.242;11.644;2022-07-10T13:14:22;20.80;96.10
16076;DHT22;8142;48.242;11.644;2022-07-10T13:16:48;20.70;95.70
16076;DHT22;8142;48.242;11.644;2022-07-10T13:19:14;20.70;95.60
16076;DHT22;8142;48.242;11.644;2022-07-10T13:21:40;20.60;96.10
16076;DHT22;8142;48.242;11.644;2022-07-10T13:24:06;20.60;96.90
16076;DHT22;8142;48.242;11.644;2022-07-10T13:26:32;20.60;96.20
16076;DHT22;8142;48.242;11.644;2022-07-10T13:28:58;20.60;96.80
16076;DHT22;8142;48.242;11.644;2022-07-10T13:31:24;20.50;95.70
16076;DHT22;8142;48.242;11.644;2022-07-10T13:33:50;20.50;96.30
16076;DHT22;8142;48.242;11.644;2022-07-10T13:36:16;20.50;96.00
16076;DHT22;8142;48.242;11.644;2022-07-10T13:38:42;20.50;96.00
16076;DHT22;8142;48.242;11.644;2022-07-10T13:41:08;20.50;96.00
16076;DHT22;8142;48.242;11.644;2022-07-10T13:43:34;20.50;96.00
16076;DHT22;8142;48.242;11.644;2022-07-10T13:46:01;20.50;95.60
16076;DHT22;8142;48.242;11.644;2022-07-10T13:48:28;20.50;95.20
16076;DHT22;8142;48.242;11.644;2022-07-10T13:50:54;20.50;95.20
16076;DHT22;8142;48.242;11.644;2022-07-10T13:53:21;20.50;95.20
16076;DHT22;8142;48.242;11.644;2022-07-10T13:55:47;20.50;95.90
16076;DHT22;8142;48.242;11.644;2022-07-10T13:58:14;20.50;94.80
16076;DHT22;8142;48.242;11.644;2022-07-10T14:00:40;20.50;94.80
16076;DHT22;8142;48.242;11.644;2022-07-10T14:03:06;20.50;94.90
16076;DHT22;8142;48.242;11.644;2022-07-10T14:05:33;20.50;94.70
16076;DHT22;8142;48.242;11.644;2022-07-10T14:07:59;20.50;94.40
16076;DHT22;8142;48.242;11.644;2022-07-10T14:10:26;20.50;94.50
16076;DHT22;8142;48.242;11.644;2022-07-10T14:12:53;20.50;94.50
16076;DHT22;8142;48.242;11.644;2022-07-10T14:15:19;20.40;94.80
16076;DHT22;8142;48.242;11.644;2022-07-10T14:17:45;20.40;94.90
16076;DHT22;8142;48.242;11.644;2022-07-10T14:20:11;20.40;94.70
16076;DHT22;8142;48.242;11.644;2022-07-10T14:22:38;20.40;95.10
16076;DHT22;8142;48.242;11.644;2022-07-10T14:25:07;20.40;96.10
16076;DHT22;8142;48.242;11.644;2022-07-10T14:27:36;20.40;94.20
16076;DHT22;8142;48.242;11.644;2022-07-10T14:30:03;20.40;94.20
16076;DHT22;8142;48.242;11.644;2022-07-10T14:32:29;20.40;94.40
16076;DHT22;8142;48.242;11.644;2022-07-10T14:34:55;20.30;94.20
16076;DHT22;8142;48.242;11.644;2022-07-10T14:37:21;20.30;94.80
16076;DHT22;8142;48.242;11.644;2022-07-10T14:39:48;20.30;94.20
16076;DHT22;8142;48.242;11.644;2022-07-10T14:42:14;20.20;94.30
16076;DHT22;8142;48.242;11.644;2022-07-10T14:44:40;20.10;94.60
16076;DHT22;8142;48.242;11.644;2022-07-10T14:47:06;20.10;94.50
16076;DHT22;8142;48.242;11.644;2022-07-10T14:49:32;20.00;94.60
16076;DHT22;8142;48.242;11.644;2022-07-10T14:51:58;20.10;94.10
16076;DHT22;8142;48.242;11.644;2022-07-10T14:54:24;20.00;94.00
16076;DHT22;8142;48.242;11.644;2022-07-10T14:56:50;20.00;94.10
16076;DHT22;8142;48.242;11.644;2022-07-10T14:59:16;20.00;94.60
16076;DHT22;8142;48.242;11.644;2022-07-10T15:01:42;20.10;94.70
16076;DHT22;8142;48.242;11.644;2022-07-10T15:04:08;20.00;94.50
16076;DHT22;8142;48.242;11.644;2022-07-10T15:06:34;20.10;93.90
16076;DHT22;8142;48.242;11.644;2022-07-10T15:09:00;20.00;93.80
16076;DHT22;8142;48.242;11.644;2022-07-10T15:11:26;20.10;94.50
16076;DHT22;8142;48.242;11.644;2022-07-10T15:13:52;20.10;94.60
16076;DHT22;8142;48.242;11.644;2022-07-10T15:16:25;20.10;94.00
16076;DHT22;8142;48.242;11.644;2022-07-10T15:18:52;20.10;93.80
16076;DHT22;8142;48.242;11.644;2022-07-10T15:21:18;20.00;93.70
16076;DHT22;8142;48.242;11.644;2022-07-10T15:23:44;20.10;94.20
16076;DHT22;8142;48.242;11.644;2022-07-10T15:26:10;20.10;93.20
16076;DHT22;8142;48.242;11.644;2022-07-10T15:28:38;20.10;93.40
16076;DHT22;8142;48.242;11.644;2022-07-10T15:31:04;20.10;93.10
16076;DHT22;8142;48.242;11.644;2022-07-10T15:33:34;20.00;93.30
16076;DHT22;8142;48.242;11.644;2022-07-10T15:36:02;20.00;94.50
16076;DHT22;8142;48.242;11.644;2022-07-10T15:38:28;19.90;93.80
16076;DHT22;8142;48.242;11.644;2022-07-10T15:40:56;20.00;93.90
16076;DHT22;8142;48.242;11.644;2022-07-10T15:43:22;20.10;94.00
16076;DHT22;8142;48.242;11.644;2022-07-10T15:45:48;19.90;94.00
16076;DHT22;8142;48.242;11.644;2022-07-10T15:48:13;20.00;94.20
16076;DHT22;8142;48.242;11.644;2022-07-10T15:50:41;20.00;94.10
16076;DHT22;8142;48.242;11.644;2022-07-10T15:53:07;20.00;93.80